Time;durP1;ratioP1;P1;durP2;ratioP2;P2;SDS_P1;SDS_P2;PMS_P1;PMS_P2;Temp;Humidity;BMP_temperature;BMP_pressure;BME280_temperature;BME280_humidity;BME280_pressure;Samples;Min_cycle;Max_cycle;Signal;HPM_P1;HPM_P2
2024/02/09 00:00:12;;;;;;;9.70;3.90;;;;;;;-11.59;53.29;98642.22;4779921;29;20043;-67
2024/02/09 00:02:42;;;;;;;11.93;4.33;;;;;;;-11.68;53.00;98637.47;4794908;29;20047;-66
2024/02/09 00:05:11;;;;;;;10.27;4.47;;;;;;;-11.60;53.19;98639.59;4791367;29;20787;-66
2024/02/09 00:07:38;;;;;;;14.80;4.67;;;;;;;-11.85;52.57;98598.84;4782434;29;20046;-66
2024/02/09 00:10:04;;;;;;;11.57;4.23;;;;;;;-11.67;53.27;98634.19;4793386;29;20146;-65
2024/02/09 00:12:34;;;;;;;12.70;4.73;;;;;;;-11.74;53.14;98622.06;4783269;29;20047;-65
2024/02/09 00:15:06;;;;;;;12.90;4.17;;;;;;;-11.83;52.38;98609.84;4783317;29;20502;-63
2024/02/09 00:17:33;;;;;;;9.63;4.47;;;;;;;-11.86;52.90;98626.34;4778099;29;20115;-65
2024/02/09 00:20:00;;;;;;;16.47;5.00;;;;;;;-11.92;53.24;98609.28;4777712;29;20062;-64
2024/02/09 00:22:26;;;;;;;9.53;4.30;;;;;;;-11.78;53.35;98630.19;4789838;29;20047;-68
2024/02/09 00:24:54;;;;;;;11.40;4.43;;;;;;;-11.90;53.30;98619.38;4776439;29;20138;-65
2024/02/09 00:27:20;;;;;;;10.83;3.90;;;;;;;-11.80;52.97;98615.03;4781945;29;20082;-65
2024/02/09 00:29:46;;;;;;;12.13;4.23;;;;;;;-11.79;53.34;98615.91;4793823;29;20054;-64
2024/02/09 00:32:14;;;;;;;13.67;4.60;;;;;;;-11.88;52.61;98612.81;4777526;29;20480;-63
2024/02/09 00:34:40;;;;;;;8.20;4.20;;;;;;;-11.77;53.46;98633.56;4777274;29;20173;-65
2024/02/09 00:37:09;;;;;;;12.30;4.80;;;;;;;-11.77;53.53;98639.47;4766058;29;20139;-64
2024/02/09 00:39:35;;;;;;;11.03;4.73;;;;;;;-11.82;52.99;98618.22;4793507;29;20054;-65
2024/02/09 00:42:04;;;;;;;13.80;5.73;;;;;;;-11.65;53.27;98646.88;4793841;29;20051;-66
2024/02/09 00:44:33;;;;;;;14.10;5.40;;;;;;;-11.67;53.50;98638.38;4789944;29;20046;-65
2024/02/09 00:47:01;;;;;;;16.60;6.77;;;;;;;-11.61;53.33;98645.41;4777414;29;20428;-66
2024/02/09 00:49:32;;;;;;;13.73;6.00;;;;;;;-11.66;53.01;98637.59;4778271;29;20077;-66
2024/02/09 00:52:00;;;;;;;13.60;4.80;;;;;;;-11.78;53.52;98605.09;4761408;29;20078;-66
2024/02/09 00:54:29;;;;;;;8.37;3.80;;;;;;;-11.63;53.02;98644.44;4765266;29;20722;-64
2024/02/09 00:56:56;;;;;;;11.73;4.93;;;;;;;-11.78;53.27;98615.13;4752057;29;20459;-64
2024/02/09 00:59:23;;;;;;;12.93;5.97;;;;;;;-11.67;52.63;98635.84;4796575;29;20055;-65
2024/02/09 01:01:57;;;;;;;13.57;5.87;;;;;;;-11.75;52.97;98624.47;4794565;29;20144;-63
2024/02/09 01:04:27;;;;;;;14.90;5.83;;;;;;;-11.66;53.40;98642.63;4765069;29;20051;-65
2024/02/09 01:06:55;;;;;;;13.97;5.13;;;;;;;-11.72;53.20;98634.72;4778915;29;20039;-65
2024/02/09 01:09:23;;;;;;;11.83;4.93;;;;;;;-11.78;53.89;98635.22;4797048;29;20420;-64
2024/02/09 01:11:49;;;;;;;10.97;4.90;;;;;;;-11.84;53.11;98628.19;4767263;29;20050;-66
2024/02/09 02:44:57;;;;;;;10.53;4.33;;;;;;;-11.83;53.97;98682.63;4776501;29;20506;-65
2024/02/09 02:47:23;;;;;;;15.47;5.17;;;;;;;-11.77;53.54;98693.78;4761020;29;20058;-63
2024/02/09 03:06:16;;;;;;;13.30;3.87;;;;;;;-11.84;53.62;98680.00;4775295;29;20455;-63
2024/02/09 03:08:42;;;;;;;9.00;3.87;;;;;;;-11.94;53.31;98687.75;4790968;29;20051;-64
2024/02/09 03:11:09;;;;;;;10.50;4.37;;;;;;;-12.08;53.78;98680.25;4764385;29;20137;-64
2024/02/09 03:13:35;;;;;;;7.87;3.60;;;;;;;-12.09;54.01;98682.69;4772349;29;20070;-63
2024/02/09 03:16:01;;;;;;;11.93;4.33;;;;;;;-12.15;54.29;98683.16;4794088;29;20435;-63
2024/02/09 03:18:28;;;;;;;11.37;3.80;;;;;;;-12.22;54.24;98686.91;4764527;29;20051;-66
2024/02/09 03:21:00;;;;;;;12.03;4.40;;;;;;;-12.36;54.47;98657.59;4776629;29;20185;-65
2024/02/09 03:23:26;;;;;;;9.73;3.93;;;;;;;-12.23;54.21;98679.31;4731585;29;20071;-64
2024/02/09 03:25:53;;;;;;;10.10;3.93;;;;;;;-12.16;54.95;98682.28;4777162;29;20529;-64
2024/02/09 03:28:19;;;;;;;10.13;4.30;;;;;;;-12.19;53.87;98674.56;4791557;29;20050;-64
2024/02/09 03:30:45;;;;;;;10.50;3.80;;;;;;;-12.18;54.53;98673.78;4779329;29;20047;-63
2024/02/09 03:33:12;;;;;;;13.90;4.10;;;;;;;-12.07;54.63;98687.00;4788110;29;20083;-63
2024/02/09 03:35:38;;;;;;;11.03;4.33;;;;;;;-12.10;54.25;98686.81;4783921;29;20426;-65
2024/02/09 03:38:04;;;;;;;8.50;4.03;;;;;;;-12.19;54.66;98667.03;4763560;29;20083;-64
2024/02/09 03:40:32;;;;;;;10.87;4.30;;;;;;;-12.06;54.23;98685.38;4792882;29;20410;-64
2024/02/09 03:42:58;;;;;;;11.23;4.10;;;;;;;-12.16;54.06;98674.75;4766406;29;20383;-63
2024/02/09 03:45:24;;;;;;;10.93;4.10;;;;;;;-12.09;54.08;98681.03;4794044;29;20165;-64
2024/02/09 03:47:54;;;;;;;8.40;3.90;;;;;;;-12.37;55.01;98636.69;4782774;29;20066;-64
2024/02/09 03:50:20;;;;;;;10.33;3.57;;;;;;;-12.14;54.69;98662.34;4792771;29;20522;-63
2024/02/09 03:52:46;;;;;;;11.63;4.30;;;;;;;-12.05;54.61;98655.34;4765654;29;20411;-63
2024/02/09 03:55:17;;;;;;;10.60;4.20;;;;;;;-12.09;53.86;98645.03;4767581;29;20055;-64
2024/02/09 03:57:45;;;;;;;8.75;3.80;;;;;;;-11.99;53.87;98690.88;4760521;29;20051;-65
2024/02/09 04:00:15;;;;;;;9.03;3.80;;;;;;;-12.13;54.14;98679.09;4795433;29;20090;-65
2024/02/09 04:02:43;;;;;;;6.67;3.60;;;;;;;-12.06;54.92;98687.91;4782955;29;20047;-64
2024/02/09 04:05:09;;;;;;;10.00;4.77;;;;;;;-12.07;54.06;98688.66;4782454;29;20047;-64
2024/02/09 04:07:35;;;;;;;11.77;4.10;;;;;;;-12.10;54.72;98681.78;4768159;29;20520;-63
2024/02/09 04:10:02;;;;;;;12.63;4.23;;;;;;;-12.13;54.60;98681.59;4767511;29;20043;-63
2024/02/09 04:12:30;;;;;;;11.87;4.00;;;;;;;-12.07;54.12;98686.16;4795444;29;20049;-66
2024/02/09 04:14:56;;;;;;;14.20;3.67;;;;;;;-12.03;54.53;98693.97;4791920;29;20047;-63
2024/02/09 04:17:28;;;;;;;9.17;4.13;;;;;;;-12.03;54.38;98698.97;4778667;29;20419;-62
2024/02/09 04:19:55;;;;;;;11.10;3.67;;;;;;;-12.21;54.29;98681.13;4768722;29;20042;-65
2024/02/09 04:22:21;;;;;;;9.23;4.47;;;;;;;-12.06;54.45;98700.44;4795476;29;20141;-65
2024/02/09 04:24:50;;;;;;;8.67;3.90;;;;;;;-12.24;54.66;98675.06;4776988;29;20047;-65
2024/02/09 04:27:17;;;;;;;6.60;3.23;;;;;;;-11.97;53.77;98721.03;4767393;29;20146;-65
2024/02/09 04:29:44;;;;;;;7.10;2.80;;;;;;;-12.14;54.85;98702.47;4767337;29;20051;-63
2024/02/09 04:32:10;;;;;;;9.17;3.97;;;;;;;-12.06;54.59;98702.94;4774591;29;20133;-63
2024/02/09 04:34:37;;;;;;;9.50;3.90;;;;;;;-12.04;54.62;98713.94;4794058;29;20078;-62
2024/02/09 04:37:04;;;;;;;9.67;4.20;;;;;;;-12.08;54.99;98692.78;4767508;29;20542;-63
2024/02/09 04:39:30;;;;;;;7.23;3.33;;;;;;;-11.99;54.77;98707.56;4794658;29;20046;-64
2024/02/09 04:41:57;;;;;;;7.73;3.87;;;;;;;-11.91;54.43;98700.50;4793543;29;20046;-64
2024/02/09 04:44:23;;;;;;;7.07;3.43;;;;;;;-12.02;54.49;98690.69;4782197;29;20096;-65
2024/02/09 04:46:50;;;;;;;6.83;3.27;;;;;;;-11.78;54.86;98723.06;4796548;29;20043;-64
2024/02/09 04:49:17;;;;;;;7.30;3.27;;;;;;;-11.82;54.48;98706.06;4793774;29;20141;-63
2024/02/09 04:51:46;;;;;;;8.53;4.13;;;;;;;-11.94;53.67;98687.75;4781913;29;20406;-64
2024/02/09 04:54:13;;;;;;;9.43;3.07;;;;;;;-11.76;53.92;98703.94;4794624;29;20104;-64
2024/02/09 04:56:39;;;;;;;9.30;3.63;;;;;;;-11.84;53.74;98713.53;4762002;29;20047;-64
2024/02/09 04:59:08;;;;;;;11.43;3.90;;;;;;;-11.94;54.38;98708.69;4766673;29;20058;-65
2024/02/09 05:01:39;;;;;;;6.43;3.60;;;;;;;-11.89;54.28;98726.53;4766917;29;20400;-64
2024/02/09 05:04:09;;;;;;;9.18;3.65;;;;;;;-11.96;54.05;98715.25;4780081;29;20122;-67
2024/02/09 05:06:35;;;;;;;8.73;3.43;;;;;;;-11.99;54.65;98718.47;4774670;29;20146;-65
2024/02/09 05:09:06;;;;;;;10.37;3.33;;;;;;;-11.99;53.81;98720.09;4772242;29;20423;-62
2024/02/09 05:11:36;;;;;;;9.38;3.10;;;;;;;-12.08;54.51;98704.50;4792844;29;20383;-65
2024/02/09 05:14:06;;;;;;;11.83;3.90;;;;;;;-11.91;54.70;98713.03;4767444;29;20051;-64
2024/02/09 05:16:36;;;;;;;6.73;3.70;;;;;;;-11.85;54.43;98725.97;4793736;29;20053;-63
2024/02/09 05:19:02;;;;;;;10.30;4.03;;;;;;;-11.62;54.35;98731.53;4793254;29;20104;-64
2024/02/09 05:21:29;;;;;;;8.13;3.03;;;;;;;-11.16;54.33;98729.31;4793948;29;20039;-64
2024/02/09 05:23:55;;;;;;;8.87;3.43;;;;;;;-10.57;54.07;98727.69;4766897;29;20165;-62
2024/02/09 05:26:21;;;;;;;9.70;4.30;;;;;;;-10.00;54.13;98719.94;4790822;29;20054;-65
2024/02/09 05:28:48;;;;;;;11.30;4.63;;;;;;;-9.37;53.75;98732.56;4791993;29;20043;-65
2024/02/09 05:31:22;;;;;;;9.17;4.13;;;;;;;-8.97;53.73;98713.59;4794091;29;20130;-63
2024/02/09 05:33:52;;;;;;;8.48;4.15;;;;;;;-8.26;52.92;98739.78;4781747;29;20045;-65
2024/02/09 05:36:23;;;;;;;12.10;4.65;;;;;;;-7.73;52.69;98722.97;4781399;29;20511;-64
2024/02/09 05:38:51;;;;;;;10.68;4.70;;;;;;;-7.21;51.38;98732.84;4791016;29;20047;-65
2024/02/09 05:41:18;;;;;;;11.98;5.13;;;;;;;-6.72;51.80;98740.03;4776196;29;20511;-64
2024/02/09 05:43:47;;;;;;;12.52;4.78;;;;;;;-6.43;50.66;98737.88;4786778;29;20039;-64
2024/02/09 05:46:16;;;;;;;11.90;5.13;;;;;;;-5.82;50.69;98725.09;4780826;29;20053;-63
2024/02/09 05:48:43;;;;;;;11.00;5.18;;;;;;;-5.33;49.77;98732.03;4787467;29;20145;-68
2024/02/09 05:51:16;;;;;;;13.48;5.70;;;;;;;-4.87;49.45;98732.84;4793682;29;20522;-66
2024/02/09 05:53:42;;;;;;;10.15;4.63;;;;;;;-4.68;47.58;98728.41;4796370;29;20051;-64
2024/02/09 05:56:21;;;;;;;12.40;4.60;;;;;;;-4.27;48.54;98726.41;4775338;29;20142;-64
2024/02/09 05:58:49;;;;;;;10.25;4.95;;;;;;;-3.48;47.96;98736.53;4779956;29;20147;-64
2024/02/09 06:01:15;;;;;;;11.23;5.05;;;;;;;-3.06;46.64;98735.22;4780696;29;20046;-65
2024/02/09 06:03:42;;;;;;;12.60;5.72;;;;;;;-2.52;46.23;98740.91;4778607;29;20046;-65
2024/02/09 06:06:11;;;;;;;13.63;6.28;;;;;;;-2.23;46.21;98710.22;4790256;29;20047;-66
2024/02/09 06:08:41;;;;;;;13.32;6.32;;;;;;;-1.63;45.34;98746.50;4766037;29;20051;-64
2024/02/09 06:11:06;;;;;;;10.65;5.63;;;;;;;-1.11;44.83;98751.06;4779292;29;20055;-65
2024/02/09 06:13:32;;;;;;;13.75;5.10;;;;;;;-0.75;43.58;98724.53;4778311;29;20043;-65
2024/02/09 06:15:59;;;;;;;11.52;5.90;;;;;;;-0.27;42.84;98724.53;4787096;29;20530;-65
2024/02/09 06:18:27;;;;;;;10.77;6.10;;;;;;;-0.03;42.39;98721.56;4789965;29;20042;-63
2024/02/09 06:20:55;;;;;;;13.07;5.72;;;;;;;0.34;41.04;98701.66;4772168;29;20055;-65
2024/02/09 06:23:23;;;;;;;11.63;5.18;;;;;;;1.07;41.18;98732.50;4746363;29;20055;-66
2024/02/09 06:25:50;;;;;;;15.90;5.55;;;;;;;1.60;39.70;98719.41;4791522;29;20153;-65
2024/02/09 06:28:16;;;;;;;13.90;6.50;;;;;;;2.19;38.83;98724.22;4775698;29;20054;-67
2024/02/09 06:30:47;;;;;;;12.88;6.25;;;;;;;2.84;38.55;98737.47;4779986;29;20046;-65
2024/02/09 06:33:21;;;;;;;10.90;6.10;;;;;;;3.57;38.18;98712.03;4765086;29;20080;-65
2024/02/09 06:35:48;;;;;;;11.70;6.10;;;;;;;4.28;36.46;98722.38;4783252;29;20058;-66
2024/02/09 06:38:17;;;;;;;13.77;6.43;;;;;;;5.09;36.94;98730.81;4775174;29;20057;-66
2024/02/09 06:40:46;;;;;;;9.48;5.53;;;;;;;5.31;35.63;98742.75;4777160;29;20583;-68
2024/02/09 06:43:19;;;;;;;11.38;5.32;;;;;;;5.05;34.67;98741.16;4779808;29;20479;-65
2024/02/09 06:45:45;;;;;;;10.93;5.85;;;;;;;4.82;33.14;98732.59;4790214;29;21563;-66
2024/02/09 06:48:11;;;;;;;9.00;5.80;;;;;;;5.02;33.29;98713.63;4774648;29;20127;-66
2024/02/09 06:50:37;;;;;;;14.00;6.57;;;;;;;5.77;32.92;98677.97;4776296;29;20119;-63
2024/02/09 06:53:07;;;;;;;10.15;5.50;;;;;;;6.33;32.18;98709.38;4761809;29;20191;-64
2024/02/09 06:55:34;;;;;;;10.73;5.57;;;;;;;6.16;31.27;98695.78;4790564;29;20107;-63
2024/02/09 06:58:01;;;;;;;10.25;5.28;;;;;;;6.33;30.86;98708.56;4774508;29;20119;-64
2024/02/09 07:00:27;;;;;;;9.52;5.03;;;;;;;6.67;30.74;98697.88;4776400;29;20513;-65
2024/02/09 07:02:55;;;;;;;8.88;5.40;;;;;;;6.65;30.31;98701.34;4779276;29;20043;-62
2024/02/09 07:05:22;;;;;;;10.98;5.85;;;;;;;6.43;30.41;98694.66;4764634;29;20050;-66
2024/02/09 07:07:50;;;;;;;10.20;5.10;;;;;;;6.98;30.06;98702.72;4791197;29;20533;-64
2024/02/09 07:10:18;;;;;;;8.52;5.32;;;;;;;7.97;29.20;98695.31;4790475;29;21000;-65
2024/02/09 07:12:45;;;;;;;9.30;4.80;;;;;;;8.48;29.07;98685.84;4790188;29;20047;-66
2024/02/09 07:15:14;;;;;;;7.65;5.07;;;;;;;8.85;28.28;98701.56;4778728;29;20057;-64
2024/02/09 07:17:41;;;;;;;9.20;5.10;;;;;;;9.22;28.06;98712.97;4789556;29;20540;-65
2024/02/09 07:20:10;;;;;;;11.18;5.35;;;;;;;9.67;26.83;98716.34;4778933;29;20077;-64
2024/02/09 07:22:37;;;;;;;7.68;4.95;;;;;;;9.89;27.44;98696.78;4791361;29;20456;-63
2024/02/09 07:25:03;;;;;;;7.20;4.95;;;;;;;10.58;26.97;98700.31;4776202;29;20057;-66
2024/02/09 07:27:31;;;;;;;9.50;5.10;;;;;;;11.13;26.13;98704.03;4775933;29;20138;-65
2024/02/09 07:29:59;;;;;;;7.03;4.90;;;;;;;11.47;26.00;98698.69;4776871;29;20103;-66
2024/02/09 07:32:25;;;;;;;6.00;4.38;;;;;;;11.50;24.97;98699.44;4791225;29;20050;-67
2024/02/09 07:34:55;;;;;;;8.35;4.60;;;;;;;11.11;25.38;98702.34;4791352;29;20064;-65
2024/02/09 07:37:21;;;;;;;7.97;5.10;;;;;;;11.44;25.47;98682.25;4762453;29;20074;-65
2024/02/09 07:39:47;;;;;;;9.80;5.88;;;;;;;11.77;24.17;98706.50;4779368;29;20502;-65
2024/02/09 07:42:13;;;;;;;9.48;5.72;;;;;;;11.51;24.08;98710.75;4778432;29;20146;-64
2024/02/09 07:44:40;;;;;;;10.57;6.30;;;;;;;10.85;23.42;98699.56;4761247;29;20141;-65
2024/02/09 07:47:07;;;;;;;10.02;5.93;;;;;;;10.49;24.24;98712.66;4777877;29;20111;-66
2024/02/09 07:49:34;;;;;;;11.10;6.50;;;;;;;10.30;23.58;98704.47;4777318;29;20054;-68
2024/02/09 07:52:02;;;;;;;11.27;5.63;;;;;;;10.27;23.55;98727.06;4740760;29;20089;-64
2024/02/09 07:54:31;;;;;;;12.27;6.65;;;;;;;9.86;23.52;98722.81;4748163;29;20047;-67
2024/02/09 07:57:00;;;;;;;10.52;5.85;;;;;;;8.53;23.66;98725.50;4777700;29;20053;-67
2024/02/09 07:59:26;;;;;;;11.82;5.75;;;;;;;7.84;23.92;98728.31;4778067;29;20090;-66
2024/02/09 08:01:53;;;;;;;9.05;5.20;;;;;;;7.95;24.08;98700.50;4777145;29;20047;-65
2024/02/09 08:04:20;;;;;;;11.00;6.63;;;;;;;8.44;23.55;98711.81;4762825;29;20051;-66
2024/02/09 08:06:47;;;;;;;8.70;5.50;;;;;;;8.95;24.08;98681.47;4755139;29;21805;-70
2024/02/09 08:09:14;;;;;;;11.90;5.65;;;;;;;10.12;23.63;98707.50;4757510;29;20047;-66
2024/02/09 08:11:42;;;;;;;11.60;5.68;;;;;;;11.25;23.67;98720.16;4762759;29;20224;-65
2024/02/09 08:14:08;;;;;;;8.15;5.38;;;;;;;12.18;22.57;98735.63;4761662;29;20497;-65
2024/02/09 08:16:35;;;;;;;10.05;5.65;;;;;;;12.98;22.65;98732.06;4746756;29;20049;-64
2024/02/09 08:19:01;;;;;;;8.85;5.85;;;;;;;13.31;22.00;98718.66;4762013;29;20074;-65
2024/02/09 08:21:27;;;;;;;11.13;6.28;;;;;;;13.46;22.30;98704.22;4746650;29;20054;-65
2024/02/09 08:23:53;;;;;;;10.52;6.40;;;;;;;13.81;21.42;98720.28;4747966;29;20051;-64
2024/02/09 08:26:20;;;;;;;9.13;5.97;;;;;;;13.64;21.59;98709.63;4779759;29;20080;-65
2024/02/09 08:28:47;;;;;;;10.27;6.60;;;;;;;13.76;21.25;98724.84;4765158;29;20178;-66
2024/02/09 08:31:15;;;;;;;12.63;6.78;;;;;;;13.10;21.15;98707.28;4764577;29;20047;-64
2024/02/09 08:33:44;;;;;;;12.43;6.30;;;;;;;13.32;21.06;98728.22;4781794;29;20047;-65
2024/02/09 08:36:16;;;;;;;15.52;6.47;;;;;;;13.66;20.91;98718.28;4763346;29;20050;-65
2024/02/09 08:38:46;;;;;;;10.23;6.65;;;;;;;14.01;20.81;98713.44;4761313;29;20055;-67
2024/02/09 08:41:12;;;;;;;10.40;6.60;;;;;;;14.07;20.66;98710.53;4780177;29;20113;-65
2024/02/09 08:43:41;;;;;;;9.75;6.18;;;;;;;13.82;20.28;98698.44;4755125;29;20043;-66
2024/02/09 08:46:08;;;;;;;9.90;6.13;;;;;;;13.57;20.06;98695.97;4771279;29;20571;-65
2024/02/09 08:48:35;;;;;;;13.85;6.78;;;;;;;14.01;20.33;98695.13;4758438;29;20047;-63
2024/02/09 08:51:01;;;;;;;15.30;6.85;;;;;;;14.35;19.92;98717.25;4744361;29;20039;-68
2024/02/09 08:53:27;;;;;;;11.23;6.70;;;;;;;14.33;19.79;98713.03;4759975;29;20050;-66
2024/02/09 08:55:53;;;;;;;10.20;6.45;;;;;;;14.73;19.92;98713.97;4757808;29;20058;-64
2024/02/09 08:58:19;;;;;;;10.60;7.07;;;;;;;14.73;19.45;98691.25;4747061;29;20063;-65
2024/02/09 09:00:46;;;;;;;10.38;6.43;;;;;;;14.79;19.38;98702.38;4758844;29;20051;-64
2024/02/09 09:03:13;;;;;;;12.30;7.03;;;;;;;15.06;19.61;98705.53;4777591;29;20438;-65
2024/02/09 09:05:41;;;;;;;11.75;6.55;;;;;;;15.32;19.68;98703.50;4745757;29;20143;-65
2024/02/09 09:08:09;;;;;;;9.68;6.28;;;;;;;15.70;19.29;98682.50;4748254;29;20047;-64
2024/02/09 09:10:38;;;;;;;10.88;6.15;;;;;;;16.05;19.36;98677.38;4774461;29;20043;-64
2024/02/09 09:13:10;;;;;;;10.40;6.03;;;;;;;16.63;19.12;98693.72;4748685;29;20047;-66
2024/02/09 09:15:41;;;;;;;8.00;5.75;;;;;;;16.79;18.59;98691.16;4762790;29;20523;-64
2024/02/09 09:18:07;;;;;;;8.63;5.97;;;;;;;16.08;18.38;98694.72;4775626;29;20542;-64
2024/02/09 09:20:35;;;;;;;10.18;6.05;;;;;;;15.66;18.82;98683.59;4762907;29;20536;-65
2024/02/09 09:23:02;;;;;;;9.10;5.93;;;;;;;15.38;18.11;98673.53;4744550;29;20455;-66
2024/02/09 09:25:31;;;;;;;9.40;6.35;;;;;;;14.91;18.75;98691.34;4744455;29;20257;-66
2024/02/09 09:28:00;;;;;;;9.57;5.85;;;;;;;14.98;18.74;98690.16;4778801;29;20665;-69
2024/02/09 09:30:26;;;;;;;8.80;6.25;;;;;;;15.17;18.64;98694.56;4748494;29;20088;-65
2024/02/09 09:32:53;;;;;;;8.23;5.97;;;;;;;15.33;18.69;98685.09;4764581;29;20059;-66
2024/02/09 09:35:19;;;;;;;7.82;5.70;;;;;;;16.38;19.07;98657.38;4745238;29;20051;-65
2024/02/09 09:37:46;;;;;;;9.23;5.78;;;;;;;18.08;18.88;98678.97;4759161;29;20483;-67
2024/02/09 09:40:12;;;;;;;8.68;5.32;;;;;;;19.25;18.12;98681.69;4773967;29;20043;-67
2024/02/09 09:42:42;;;;;;;8.38;5.05;;;;;;;19.36;17.94;98682.78;4776939;29;20087;-68
2024/02/09 09:45:10;;;;;;;7.18;5.30;;;;;;;19.81;18.07;98685.22;4762300;29;20096;-68
2024/02/09 09:47:41;;;;;;;7.25;5.00;;;;;;;20.17;17.65;98676.72;4770006;29;20054;-68
2024/02/09 09:50:10;;;;;;;9.43;5.45;;;;;;;20.19;17.45;98673.13;4761784;29;20057;-66
2024/02/09 09:52:38;;;;;;;6.60;5.20;;;;;;;20.09;17.10;98671.09;4777142;29;20130;-67
2024/02/09 09:55:05;;;;;;;8.70;6.63;;;;;;;19.10;16.98;98675.56;4780676;29;20047;-66
2024/02/09 09:57:32;;;;;;;8.10;6.28;;;;;;;18.65;16.94;98682.69;4780718;29;20495;-67
2024/02/09 09:59:59;;;;;;;11.85;6.47;;;;;;;18.50;17.32;98677.41;4765851;29;20050;-68
2024/02/09 10:02:25;;;;;;;11.30;6.72;;;;;;;18.06;17.09;98675.59;4791941;29;20503;-65
2024/02/09 10:04:51;;;;;;;8.88;6.43;;;;;;;17.94;17.26;98681.50;4791795;29;20051;-66
2024/02/09 10:07:20;;;;;;;13.20;6.55;;;;;;;17.31;17.08;98686.72;4790687;29;20093;-64
2024/02/09 10:09:47;;;;;;;8.23;5.70;;;;;;;17.30;17.41;98685.84;4780088;29;20054;-64
2024/02/09 10:12:16;;;;;;;7.97;5.80;;;;;;;17.07;17.23;98681.84;4775620;29;20053;-66
2024/02/09 10:14:42;;;;;;;10.43;6.57;;;;;;;16.93;17.18;98687.81;4792359;29;20057;-66
2024/02/09 10:17:11;;;;;;;9.88;7.00;;;;;;;16.71;17.20;98682.81;4789783;29;20498;-66
2024/02/09 10:19:38;;;;;;;13.02;6.20;;;;;;;16.15;17.21;98680.38;4776257;29;20464;-66
2024/02/09 10:22:07;;;;;;;9.93;6.60;;;;;;;13.80;16.85;98686.34;4780397;29;20104;-64
2024/02/09 10:24:34;;;;;;;8.30;6.07;;;;;;;10.89;17.69;98700.34;4780342;29;20096;-64
2024/02/09 10:27:00;;;;;;;10.70;6.43;;;;;;;8.70;19.00;98702.75;4772006;29;20039;-67
2024/02/09 10:29:26;;;;;;;9.60;5.70;;;;;;;7.15;19.76;98707.69;4792225;29;20050;-66
2024/02/09 10:31:54;;;;;;;9.32;5.40;;;;;;;5.90;20.85;98699.38;4780344;29;20054;-65
2024/02/09 10:34:20;;;;;;;8.80;5.93;;;;;;;4.60;21.01;98698.31;4765735;29;20593;-64
2024/02/09 10:36:47;;;;;;;11.90;6.20;;;;;;;3.72;21.93;98721.50;4765464;29;20043;-65
2024/02/09 10:39:14;;;;;;;10.77;5.53;;;;;;;2.89;22.83;98722.94;4762890;29;20043;-65
2024/02/09 10:41:42;;;;;;;11.20;5.68;;;;;;;2.27;23.53;98732.84;4765220;29;20043;-66
2024/02/09 10:44:10;;;;;;;10.43;5.22;;;;;;;1.53;23.71;98709.09;4792424;29;20051;-65
2024/02/09 10:46:38;;;;;;;9.48;5.00;;;;;;;0.93;24.64;98740.88;4785866;29;20038;-64
2024/02/09 10:49:06;;;;;;;10.45;5.22;;;;;;;0.36;25.00;98740.94;4778734;29;20036;-66
2024/02/09 10:51:35;;;;;;;8.25;4.72;;;;;;;-0.19;25.28;98726.41;4781293;29;20074;-66
2024/02/09 10:54:14;;;;;;;9.57;4.88;;;;;;;-0.54;25.93;98741.09;4786429;29;20082;-65
2024/02/09 10:56:41;;;;;;;9.88;3.90;;;;;;;-0.76;26.91;98743.25;4780309;29;20080;-65
2024/02/09 10:59:09;;;;;;;9.18;4.47;;;;;;;-1.14;26.83;98721.22;4779661;29;20430;-63
2024/02/09 11:01:36;;;;;;;10.48;4.60;;;;;;;-1.33;27.36;98737.81;4780251;29;20525;-66
2024/02/09 11:04:03;;;;;;;9.63;4.57;;;;;;;-1.44;27.66;98734.19;4791049;29;20154;-64
2024/02/09 11:06:32;;;;;;;8.30;3.80;;;;;;;-1.35;27.89;98746.28;4775360;29;20055;-65
2024/02/09 11:08:58;;;;;;;8.02;3.95;;;;;;;-1.43;28.12;98728.22;4791766;29;21061;-67
2024/02/09 11:11:31;;;;;;;7.20;3.70;;;;;;;-1.32;28.32;98743.81;4785008;29;20051;-64
2024/02/09 11:14:07;;;;;;;8.68;4.03;;;;;;;-1.24;28.14;98748.25;4791919;29;20116;-66
2024/02/09 11:16:44;;;;;;;7.47;3.83;;;;;;;-1.37;28.61;98752.22;4775283;29;20158;-63
2024/02/09 11:19:15;;;;;;;9.18;4.20;;;;;;;-1.83;28.70;98735.84;4774192;29;20680;-63
2024/02/09 11:21:48;;;;;;;9.60;4.35;;;;;;;-1.88;29.30;98738.28;4790358;29;20057;-65
2024/02/09 11:24:19;;;;;;;7.38;3.90;;;;;;;-1.74;29.38;98741.16;4795048;29;20057;-64
2024/02/09 11:26:48;;;;;;;10.80;5.25;;;;;;;-1.66;29.02;98754.09;4789605;29;20050;-62
2024/02/09 11:29:18;;;;;;;9.43;3.58;;;;;;;-2.07;29.08;98739.53;4792274;29;20132;-62
2024/02/09 11:31:57;;;;;;;8.82;4.18;;;;;;;-2.21;29.75;98754.47;4793135;29;20407;-63
2024/02/09 11:34:25;;;;;;;6.05;3.85;;;;;;;-2.28;30.24;98755.13;4775290;29;20118;-65
2024/02/09 11:37:00;;;;;;;7.70;3.35;;;;;;;-2.45;30.26;98744.50;4778995;29;20529;-63
2024/02/09 11:39:27;;;;;;;6.00;3.38;;;;;;;-2.37;30.19;98750.66;4788786;29;20451;-65
2024/02/09 11:41:53;;;;;;;7.65;3.35;;;;;;;-2.51;30.48;98736.69;4790243;29;20570;-65
2024/02/09 11:44:20;;;;;;;5.90;3.35;;;;;;;-2.66;30.56;98716.75;4793228;29;20055;-66
2024/02/09 11:46:48;;;;;;;5.93;2.90;;;;;;;-2.48;31.30;98742.72;4776837;29;20042;-63
2024/02/09 11:49:14;;;;;;;6.75;3.08;;;;;;;-2.35;31.15;98760.91;4780736;29;20043;-63
2024/02/09 11:51:41;;;;;;;6.78;2.72;;;;;;;-2.41;31.24;98761.56;4758129;29;20046;-65
2024/02/09 11:54:11;;;;;;;5.38;2.70;;;;;;;-2.38;31.19;98763.38;4758614;29;20110;-66
2024/02/09 11:56:38;;;;;;;5.85;3.00;;;;;;;-2.41;31.15;98746.28;4775899;29;20047;-64
2024/02/09 11:59:10;;;;;;;5.53;2.90;;;;;;;-2.53;31.50;98756.16;4745970;29;20043;-61
2024/02/09 12:01:42;;;;;;;4.75;2.80;;;;;;;-2.51;31.67;98754.53;4742718;29;20044;-64
2024/02/09 12:04:09;;;;;;;6.35;2.83;;;;;;;-2.47;31.40;98758.88;4765306;29;20043;-65
2024/02/09 12:06:37;;;;;;;6.40;3.00;;;;;;;-2.50;31.69;98763.91;4765593;29;20138;-64
2024/02/09 12:09:04;;;;;;;4.88;3.15;;;;;;;-2.66;31.76;98763.50;4744780;29;20067;-62
2024/02/09 12:11:30;;;;;;;5.22;3.00;;;;;;;-2.92;31.67;98753.44;4776105;29;20048;-64
2024/02/09 12:13:56;;;;;;;6.38;3.05;;;;;;;-3.08;32.08;98747.03;4775628;29;20050;-64
2024/02/09 12:16:22;;;;;;;6.43;2.95;;;;;;;-3.20;32.43;98755.16;4747428;29;20078;-62
2024/02/09 12:18:55;;;;;;;6.10;2.90;;;;;;;-3.14;32.60;98756.19;4764100;29;20468;-66
2024/02/09 12:21:21;;;;;;;5.93;2.80;;;;;;;-3.10;32.27;98763.94;4750447;29;20481;-65
2024/02/09 12:23:49;;;;;;;5.38;2.65;;;;;;;-3.20;32.45;98756.88;4773034;29;20523;-63
2024/02/09 12:26:16;;;;;;;6.25;3.63;;;;;;;-3.17;32.83;98774.75;4731428;29;20142;-65
2024/02/09 12:28:42;;;;;;;5.55;2.85;;;;;;;-3.26;32.89;98772.78;4749571;29;20411;-63
2024/02/09 12:31:08;;;;;;;6.57;3.03;;;;;;;-3.52;32.78;98779.63;4735369;29;20515;-65
2024/02/09 12:33:42;;;;;;;5.40;2.95;;;;;;;-3.56;33.22;98782.91;4762599;29;20472;-65
2024/02/09 12:36:08;;;;;;;5.50;2.67;;;;;;;-3.49;33.54;98785.66;4777086;29;20047;-66
2024/02/09 12:38:40;;;;;;;5.97;2.88;;;;;;;-3.48;33.36;98776.38;4765127;29;20062;-65
2024/02/09 12:41:12;;;;;;;5.57;3.05;;;;;;;-3.47;33.45;98785.75;4761800;29;20511;-64
2024/02/09 12:43:38;;;;;;;6.38;2.78;;;;;;;-3.51;33.56;98766.94;4766211;29;20043;-66
2024/02/09 12:46:06;;;;;;;4.65;2.55;;;;;;;-3.49;33.62;98764.47;4760714;29;20053;-63
2024/02/09 12:48:36;;;;;;;5.28;2.58;;;;;;;-3.28;33.92;98783.75;4791136;29;20457;-64
2024/02/09 12:51:05;;;;;;;6.88;3.10;;;;;;;-3.52;33.32;98749.97;4782088;29;20051;-67
2024/02/09 12:53:34;;;;;;;7.57;2.60;;;;;;;-3.39;33.65;98791.91;4783615;29;20054;-65
2024/02/09 12:56:02;;;;;;;5.47;2.70;;;;;;;-3.66;34.15;98769.03;4793603;29;20130;-66
2024/02/09 12:58:30;;;;;;;5.15;2.63;;;;;;;-3.58;33.92;98798.13;4779538;29;20453;-67
2024/02/09 13:00:56;;;;;;;4.25;2.55;;;;;;;-3.56;34.34;98800.69;4766689;29;20050;-65
2024/02/09 13:03:23;;;;;;;7.13;2.80;;;;;;;-3.66;34.09;98797.00;4792821;29;20804;-66
2024/02/09 13:05:49;;;;;;;5.60;3.20;;;;;;;-3.71;34.11;98794.31;4794095;29;20050;-66
2024/02/09 13:08:15;;;;;;;5.32;2.78;;;;;;;-3.66;34.33;98812.25;4777076;29;20039;-66
2024/02/09 13:10:41;;;;;;;4.75;2.92;;;;;;;-3.65;34.66;98809.78;4792538;29;20050;-66
2024/02/09 13:13:07;;;;;;;9.27;3.22;;;;;;;-3.73;34.78;98795.06;4782116;29;20082;-64
2024/02/09 13:15:34;;;;;;;6.68;2.90;;;;;;;-3.82;34.21;98780.38;4767567;29;20391;-65
2024/02/09 13:18:03;;;;;;;5.60;2.88;;;;;;;-3.79;34.21;98795.75;4764478;29;20040;-67